sensor_id;sensor_type;location;lat;lon;timestamp;P1;durP1;ratioP1;P2;durP2;ratioP2
66270;SDS011;53063;39.614;8.814;2024-01-15T00:02:23;5.72;;;1.63;;
66270;SDS011;53063;39.614;8.814;2024-01-15T00:04:49;3.35;;;1.35;;
66270;SDS011;53063;39.614;8.814;2024-01-15T00:07:15;9.30;;;1.38;;
66270;SDS011;53063;39.614;8.814;2024-01-15T00:09:40;11.68;;;1.63;;
66270;SDS011;53063;39.614;8.814;2024-01-15T00:12:06;5.00;;;1.60;;
66270;SDS011;53063;39.614;8.814;2024-01-15T00:14:32;3.85;;;1.70;;
66270;SDS011;53063;39.614;8.814;2024-01-15T00:16:58;9.23;;;1.80;;
66270;SDS011;53063;39.614;8.814;2024-01-15T00:19:24;5.53;;;1.90;;
66270;SDS011;53063;39.614;8.814;2024-01-15T00:21:50;11.48;;;2.50;;
66270;SDS011;53063;39.614;8.814;2024-01-15T00:24:16;8.05;;;1.95;;
66270;SDS011;53063;39.614;8.814;2024-01-15T00:26:42;11.60;;;2.00;;
66270;SDS011;53063;39.614;8.814;2024-01-15T00:29:08;2.53;;;1.50;;
66270;SDS011;53063;39.614;8.814;2024-01-15T00:31:34;6.80;;;2.25;;
66270;SDS011;53063;39.614;8.814;2024-01-15T00:34:00;3.35;;;1.30;;
66270;SDS011;53063;39.614;8.814;2024-01-15T00:36:26;6.75;;;2.33;;
66270;SDS011;53063;39.614;8.814;2024-01-15T00:38:53;7.45;;;1.83;;
66270;SDS011;53063;39.614;8.814;2024-01-15T00:41:19;5.85;;;1.58;;
66270;SDS011;53063;39.614;8.814;2024-01-15T00:43:45;7.45;;;1.90;;
66270;SDS011;53063;39.614;8.814;2024-01-15T00:46:11;4.72;;;1.83;;
66270;SDS011;53063;39.614;8.814;2024-01-15T00:48:37;8.95;;;2.45;;
66270;SDS011;53063;39.614;8.814;2024-01-15T00:51:06;6.78;;;1.90;;
66270;SDS011;53063;39.614;8.814;2024-01-15T00:53:32;10.52;;;2.10;;
66270;SDS011;53063;39.614;8.814;2024-01-15T00:55:58;6.30;;;1.80;;
66270;SDS011;53063;39.614;8.814;2024-01-15T00:58:24;4.80;;;1.38;;
66270;SDS011;53063;39.614;8.814;2024-01-15T01:00:51;5.25;;;1.55;;
66270;SDS011;53063;39.614;8.814;2024-01-15T01:03:17;9.07;;;1.75;;
66270;SDS011;53063;39.614;8.814;2024-01-15T01:05:43;11.63;;;2.00;;
66270;SDS011;53063;39.614;8.814;2024-01-15T01:08:10;4.53;;;1.38;;
66270;SDS011;53063;39.614;8.814;2024-01-15T01:10:37;5.40;;;2.13;;
66270;SDS011;53063;39.614;8.814;2024-01-15T01:13:03;3.40;;;1.63;;
66270;SDS011;53063;39.614;8.814;2024-01-15T01:15:29;6.35;;;1.88;;
66270;SDS011;53063;39.614;8.814;2024-01-15T01:17:55;6.28;;;1.92;;
66270;SDS011;53063;39.614;8.814;2024-01-15T01:20:21;7.60;;;1.98;;
66270;SDS011;53063;39.614;8.814;2024-01-15T01:22:47;6.72;;;1.73;;
66270;SDS011;53063;39.614;8.814;2024-01-15T01:25:13;6.18;;;1.63;;
66270;SDS011;53063;39.614;8.814;2024-01-15T01:27:39;8.25;;;1.83;;
66270;SDS011;53063;39.614;8.814;2024-01-15T01:30:05;6.18;;;1.42;;
66270;SDS011;53063;39.614;8.814;2024-01-15T01:32:31;4.47;;;1.52;;
66270;SDS011;53063;39.614;8.814;2024-01-15T01:34:57;6.47;;;1.55;;
66270;SDS011;53063;39.614;8.814;2024-01-15T01:37:23;6.35;;;1.55;;
66270;SDS011;53063;39.614;8.814;2024-01-15T01:39:49;6.78;;;1.92;;
66270;SDS011;53063;39.614;8.814;2024-01-15T01:42:15;10.50;;;1.85;;
66270;SDS011;53063;39.614;8.814;2024-01-15T01:44:41;6.57;;;1.50;;
66270;SDS011;53063;39.614;8.814;2024-01-15T01:47:07;5.35;;;1.73;;
66270;SDS011;53063;39.614;8.814;2024-01-15T01:49:33;7.43;;;1.60;;
66270;SDS011;53063;39.614;8.814;2024-01-15T01:52:01;5.55;;;1.45;;
66270;SDS011;53063;39.614;8.814;2024-01-15T01:54:29;3.42;;;1.67;;
66270;SDS011;53063;39.614;8.814;2024-01-15T01:56:57;4.07;;;1.27;;
66270;SDS011;53063;39.614;8.814;2024-01-15T01:59:23;4.40;;;1.60;;
66270;SDS011;53063;39.614;8.814;2024-01-15T02:01:54;5.45;;;1.63;;
66270;SDS011;53063;39.614;8.814;2024-01-15T02:04:20;3.92;;;1.45;;
66270;SDS011;53063;39.614;8.814;2024-01-15T02:06:49;5.65;;;1.60;;
66270;SDS011;53063;39.614;8.814;2024-01-15T02:09:16;7.53;;;3.35;;
66270;SDS011;53063;39.614;8.814;2024-01-15T02:11:43;4.95;;;1.23;;
66270;SDS011;53063;39.614;8.814;2024-01-15T02:14:11;5.28;;;1.77;;
66270;SDS011;53063;39.614;8.814;2024-01-15T02:16:37;3.45;;;1.67;;
66270;SDS011;53063;39.614;8.814;2024-01-15T02:19:03;5.40;;;1.27;;
66270;SDS011;53063;39.614;8.814;2024-01-15T02:21:29;4.10;;;1.42;;
66270;SDS011;53063;39.614;8.814;2024-01-15T02:23:56;5.15;;;1.70;;
66270;SDS011;53063;39.614;8.814;2024-01-15T02:26:22;3.67;;;1.60;;
66270;SDS011;53063;39.614;8.814;2024-01-15T02:28:48;5.15;;;1.45;;
66270;SDS011;53063;39.614;8.814;2024-01-15T02:31:16;4.18;;;1.80;;
66270;SDS011;53063;39.614;8.814;2024-01-15T02:33:43;5.28;;;1.60;;
66270;SDS011;53063;39.614;8.814;2024-01-15T02:36:11;5.03;;;1.58;;
66270;SDS011;53063;39.614;8.814;2024-01-15T02:38:37;6.90;;;1.58;;
66270;SDS011;53063;39.614;8.814;2024-01-15T02:41:03;3.20;;;1.40;;
66270;SDS011;53063;39.614;8.814;2024-01-15T02:43:29;6.43;;;1.50;;
66270;SDS011;53063;39.614;8.814;2024-01-15T02:45:55;4.05;;;1.27;;
66270;SDS011;53063;39.614;8.814;2024-01-15T02:48:21;5.57;;;1.65;;
66270;SDS011;53063;39.614;8.814;2024-01-15T02:50:47;3.92;;;1.60;;
66270;SDS011;53063;39.614;8.814;2024-01-15T02:53:13;7.22;;;1.45;;
66270;SDS011;53063;39.614;8.814;2024-01-15T02:55:39;3.42;;;1.25;;
66270;SDS011;53063;39.614;8.814;2024-01-15T02:58:05;4.22;;;1.70;;
66270;SDS011;53063;39.614;8.814;2024-01-15T03:00:31;7.60;;;1.80;;
66270;SDS011;53063;39.614;8.814;2024-01-15T03:02:57;4.28;;;2.00;;
66270;SDS011;53063;39.614;8.814;2024-01-15T03:05:22;7.85;;;1.90;;
66270;SDS011;53063;39.614;8.814;2024-01-15T03:07:48;4.70;;;1.67;;
66270;SDS011;53063;39.614;8.814;2024-01-15T03:10:14;9.35;;;1.83;;
66270;SDS011;53063;39.614;8.814;2024-01-15T03:12:40;5.40;;;1.42;;
66270;SDS011;53063;39.614;8.814;2024-01-15T03:15:06;5.40;;;1.67;;
66270;SDS011;53063;39.614;8.814;2024-01-15T03:17:32;3.17;;;1.45;;
66270;SDS011;53063;39.614;8.814;2024-01-15T03:19:58;5.45;;;2.05;;
66270;SDS011;53063;39.614;8.814;2024-01-15T03:22:24;10.50;;;2.53;;
66270;SDS011;53063;39.614;8.814;2024-01-15T03:24:50;8.13;;;1.92;;
66270;SDS011;53063;39.614;8.814;2024-01-15T03:27:16;6.65;;;1.65;;
66270;SDS011;53063;39.614;8.814;2024-01-15T03:29:41;7.00;;;1.98;;
66270;SDS011;53063;39.614;8.814;2024-01-15T03:32:07;3.13;;;1.58;;
66270;SDS011;53063;39.614;8.814;2024-01-15T03:34:33;10.27;;;1.67;;
66270;SDS011;53063;39.614;8.814;2024-01-15T03:36:59;5.97;;;1.50;;
66270;SDS011;53063;39.614;8.814;2024-01-15T03:39:25;2.97;;;1.38;;
66270;SDS011;53063;39.614;8.814;2024-01-15T03:41:51;9.45;;;1.55;;
66270;SDS011;53063;39.614;8.814;2024-01-15T03:44:17;2.50;;;1.40;;
66270;SDS011;53063;39.614;8.814;2024-01-15T03:46:43;8.25;;;1.98;;
66270;SDS011;53063;39.614;8.814;2024-01-15T03:49:08;6.10;;;1.52;;
66270;SDS011;53063;39.614;8.814;2024-01-15T03:51:34;4.30;;;1.63;;
66270;SDS011;53063;39.614;8.814;2024-01-15T03:54:00;6.20;;;1.80;;
66270;SDS011;53063;39.614;8.814;2024-01-15T03:56:26;5.35;;;2.10;;
66270;SDS011;53063;39.614;8.814;2024-01-15T03:58:52;5.68;;;1.73;;
66270;SDS011;53063;39.614;8.814;2024-01-15T04:01:18;7.18;;;1.60;;
66270;SDS011;53063;39.614;8.814;2024-01-15T04:03:44;6.78;;;2.13;;
66270;SDS011;53063;39.614;8.814;2024-01-15T04:06:10;7.13;;;2.10;;
66270;SDS011;53063;39.614;8.814;2024-01-15T04:08:35;7.88;;;2.38;;
66270;SDS011;53063;39.614;8.814;2024-01-15T04:11:01;14.32;;;5.15;;
66270;SDS011;53063;39.614;8.814;2024-01-15T04:13:28;7.25;;;2.75;;
66270;SDS011;53063;39.614;8.814;2024-01-15T04:15:53;7.38;;;2.42;;
66270;SDS011;53063;39.614;8.814;2024-01-15T04:18:19;9.65;;;2.60;;
66270;SDS011;53063;39.614;8.814;2024-01-15T04:20:45;7.47;;;2.00;;
66270;SDS011;53063;39.614;8.814;2024-01-15T04:23:11;5.00;;;2.22;;
66270;SDS011;53063;39.614;8.814;2024-01-15T04:25:37;4.60;;;1.95;;
66270;SDS011;53063;39.614;8.814;2024-01-15T04:28:04;5.60;;;2.10;;
66270;SDS011;53063;39.614;8.814;2024-01-15T04:30:30;2.97;;;1.90;;
66270;SDS011;53063;39.614;8.814;2024-01-15T04:32:56;6.03;;;2.33;;
66270;SDS011;53063;39.614;8.814;2024-01-15T04:35:22;8.13;;;1.95;;
66270;SDS011;53063;39.614;8.814;2024-01-15T04:37:47;4.07;;;1.60;;
66270;SDS011;53063;39.614;8.814;2024-01-15T04:40:13;4.18;;;1.67;;
66270;SDS011;53063;39.614;8.814;2024-01-15T04:42:39;4.35;;;1.67;;
66270;SDS011;53063;39.614;8.814;2024-01-15T04:45:06;5.13;;;2.25;;
66270;SDS011;53063;39.614;8.814;2024-01-15T04:47:32;7.18;;;2.17;;
66270;SDS011;53063;39.614;8.814;2024-01-15T04:49:58;5.65;;;1.65;;
66270;SDS011;53063;39.614;8.814;2024-01-15T04:52:23;5.60;;;1.40;;
66270;SDS011;53063;39.614;8.814;2024-01-15T04:54:49;5.28;;;1.98;;
66270;SDS011;53063;39.614;8.814;2024-01-15T04:57:15;5.22;;;1.45;;
66270;SDS011;53063;39.614;8.814;2024-01-15T04:59:41;5.15;;;1.70;;
66270;SDS011;53063;39.614;8.814;2024-01-15T05:02:07;7.05;;;1.88;;
66270;SDS011;53063;39.614;8.814;2024-01-15T05:04:33;5.22;;;1.55;;
66270;SDS011;53063;39.614;8.814;2024-01-15T05:06:58;2.97;;;1.25;;
66270;SDS011;53063;39.614;8.814;2024-01-15T05:09:24;4.03;;;1.55;;
66270;SDS011;53063;39.614;8.814;2024-01-15T05:11:50;4.50;;;2.13;;
66270;SDS011;53063;39.614;8.814;2024-01-15T05:14:16;5.88;;;1.48;;
66270;SDS011;53063;39.614;8.814;2024-01-15T05:16:48;5.80;;;1.77;;
66270;SDS011;53063;39.614;8.814;2024-01-15T05:19:14;3.70;;;1.38;;
66270;SDS011;53063;39.614;8.814;2024-01-15T05:21:40;4.50;;;1.20;;
66270;SDS011;53063;39.614;8.814;2024-01-15T05:24:07;3.17;;;1.45;;
66270;SDS011;53063;39.614;8.814;2024-01-15T05:26:33;7.20;;;1.70;;
66270;SDS011;53063;39.614;8.814;2024-01-15T05:28:59;4.03;;;1.45;;
66270;SDS011;53063;39.614;8.814;2024-01-15T05:31:25;4.20;;;1.52;;
66270;SDS011;53063;39.614;8.814;2024-01-15T05:33:51;6.38;;;1.58;;
66270;SDS011;53063;39.614;8.814;2024-01-15T05:36:17;3.15;;;1.38;;
66270;SDS011;53063;39.614;8.814;2024-01-15T05:38:42;6.78;;;2.10;;
66270;SDS011;53063;39.614;8.814;2024-01-15T05:41:08;5.30;;;1.38;;
66270;SDS011;53063;39.614;8.814;2024-01-15T05:43:35;5.45;;;1.35;;
66270;SDS011;53063;39.614;8.814;2024-01-15T05:46:01;2.80;;;1.42;;
66270;SDS011;53063;39.614;8.814;2024-01-15T05:48:28;6.10;;;1.80;;
66270;SDS011;53063;39.614;8.814;2024-01-15T05:50:54;6.88;;;2.05;;
66270;SDS011;53063;39.614;8.814;2024-01-15T05:53:20;4.15;;;1.73;;
66270;SDS011;53063;39.614;8.814;2024-01-15T05:55:45;4.75;;;1.60;;
66270;SDS011;53063;39.614;8.814;2024-01-15T05:58:11;9.55;;;1.58;;
66270;SDS011;53063;39.614;8.814;2024-01-15T06:00:37;7.53;;;1.23;;
66270;SDS011;53063;39.614;8.814;2024-01-15T06:03:03;3.45;;;1.30;;
66270;SDS011;53063;39.614;8.814;2024-01-15T06:05:29;7.18;;;1.50;;
66270;SDS011;53063;39.614;8.814;2024-01-15T06:07:55;5.13;;;2.75;;
66270;SDS011;53063;39.614;8.814;2024-01-15T06:10:21;6.15;;;3.90;;
66270;SDS011;53063;39.614;8.814;2024-01-15T06:12:47;8.60;;;3.67;;
66270;SDS011;53063;39.614;8.814;2024-01-15T06:15:13;8.23;;;2.88;;
66270;SDS011;53063;39.614;8.814;2024-01-15T06:17:39;10.82;;;2.75;;
66270;SDS011;53063;39.614;8.814;2024-01-15T06:20:05;7.75;;;1.85;;
66270;SDS011;53063;39.614;8.814;2024-01-15T06:22:31;3.78;;;1.95;;
66270;SDS011;53063;39.614;8.814;2024-01-15T06:24:57;6.70;;;2.40;;
66270;SDS011;53063;39.614;8.814;2024-01-15T06:27:23;8.75;;;2.67;;
66270;SDS011;53063;39.614;8.814;2024-01-15T06:29:49;7.93;;;2.70;;
66270;SDS011;53063;39.614;8.814;2024-01-15T06:32:15;7.80;;;2.53;;
66270;SDS011;53063;39.614;8.814;2024-01-15T06:34:41;6.57;;;2.45;;
66270;SDS011;53063;39.614;8.814;2024-01-15T06:37:06;6.53;;;2.60;;
66270;SDS011;53063;39.614;8.814;2024-01-15T06:39:32;6.03;;;2.40;;
66270;SDS011;53063;39.614;8.814;2024-01-15T06:41:58;7.32;;;2.38;;
66270;SDS011;53063;39.614;8.814;2024-01-15T06:44:24;6.07;;;2.38;;
66270;SDS011;53063;39.614;8.814;2024-01-15T06:46:50;16.08;;;5.57;;
66270;SDS011;53063;39.614;8.814;2024-01-15T06:49:16;12.32;;;5.22;;
66270;SDS011;53063;39.614;8.814;2024-01-15T06:51:42;10.73;;;2.30;;
66270;SDS011;53063;39.614;8.814;2024-01-15T06:54:08;8.45;;;3.60;;
66270;SDS011;53063;39.614;8.814;2024-01-15T06:56:34;13.27;;;6.20;;
66270;SDS011;53063;39.614;8.814;2024-01-15T06:59:00;9.63;;;3.75;;
66270;SDS011;53063;39.614;8.814;2024-01-15T07:01:26;13.55;;;4.38;;
66270;SDS011;53063;39.614;8.814;2024-01-15T07:03:52;14.45;;;4.32;;
66270;SDS011;53063;39.614;8.814;2024-01-15T07:06:17;12.80;;;4.60;;
66270;SDS011;53063;39.614;8.814;2024-01-15T07:08:43;7.78;;;3.38;;
66270;SDS011;53063;39.614;8.814;2024-01-15T07:11:09;7.25;;;2.90;;
66270;SDS011;53063;39.614;8.814;2024-01-15T07:13:36;14.88;;;4.85;;
66270;SDS011;53063;39.614;8.814;2024-01-15T07:16:03;17.80;;;7.63;;
66270;SDS011;53063;39.614;8.814;2024-01-15T07:18:29;12.63;;;6.07;;
66270;SDS011;53063;39.614;8.814;2024-01-15T07:20:55;11.73;;;4.72;;
66270;SDS011;53063;39.614;8.814;2024-01-15T07:23:21;8.68;;;3.85;;
66270;SDS011;53063;39.614;8.814;2024-01-15T07:25:47;13.82;;;4.65;;
66270;SDS011;53063;39.614;8.814;2024-01-15T07:28:13;30.33;;;8.23;;
66270;SDS011;53063;39.614;8.814;2024-01-15T07:30:39;10.60;;;4.60;;
66270;SDS011;53063;39.614;8.814;2024-01-15T07:33:05;13.27;;;3.45;;
66270;SDS011;53063;39.614;8.814;2024-01-15T07:35:31;6.45;;;2.80;;
66270;SDS011;53063;39.614;8.814;2024-01-15T07:37:57;10.02;;;2.65;;
66270;SDS011;53063;39.614;8.814;2024-01-15T07:40:23;7.55;;;2.60;;
66270;SDS011;53063;39.614;8.814;2024-01-15T07:42:50;12.95;;;4.00;;
66270;SDS011;53063;39.614;8.814;2024-01-15T07:45:16;12.68;;;5.50;;
66270;SDS011;53063;39.614;8.814;2024-01-15T07:47:43;20.70;;;6.72;;
66270;SDS011;53063;39.614;8.814;2024-01-15T07:50:09;15.60;;;5.60;;
66270;SDS011;53063;39.614;8.814;2024-01-15T07:52:35;17.83;;;5.55;;
66270;SDS011;53063;39.614;8.814;2024-01-15T07:55:01;15.85;;;5.63;;
66270;SDS011;53063;39.614;8.814;2024-01-15T07:57:29;32.90;;;7.40;;
66270;SDS011;53063;39.614;8.814;2024-01-15T07:59:55;25.40;;;5.82;;
66270;SDS011;53063;39.614;8.814;2024-01-15T08:02:20;18.83;;;3.70;;
66270;SDS011;53063;39.614;8.814;2024-01-15T08:04:47;14.65;;;2.90;;
66270;SDS011;53063;39.614;8.814;2024-01-15T08:07:13;9.73;;;3.13;;
66270;SDS011;53063;39.614;8.814;2024-01-15T08:09:39;46.75;;;15.63;;
66270;SDS011;53063;39.614;8.814;2024-01-15T08:12:04;31.50;;;10.07;;
66270;SDS011;53063;39.614;8.814;2024-01-15T08:14:31;23.17;;;10.38;;
66270;SDS011;53063;39.614;8.814;2024-01-15T08:16:57;20.55;;;6.97;;
66270;SDS011;53063;39.614;8.814;2024-01-15T08:19:23;20.75;;;7.88;;
66270;SDS011;53063;39.614;8.814;2024-01-15T08:21:49;20.35;;;6.38;;
66270;SDS011;53063;39.614;8.814;2024-01-15T08:24:15;22.98;;;12.43;;
66270;SDS011;53063;39.614;8.814;2024-01-15T08:26:42;26.77;;;11.63;;
66270;SDS011;53063;39.614;8.814;2024-01-15T08:29:08;21.80;;;9.80;;
66270;SDS011;53063;39.614;8.814;2024-01-15T08:31:34;24.90;;;10.43;;
66270;SDS011;53063;39.614;8.814;2024-01-15T08:34:00;11.65;;;5.13;;
66270;SDS011;53063;39.614;8.814;2024-01-15T08:36:27;25.08;;;9.18;;
66270;SDS011;53063;39.614;8.814;2024-01-15T08:38:55;12.98;;;5.43;;
66270;SDS011;53063;39.614;8.814;2024-01-15T08:41:21;10.98;;;3.47;;
66270;SDS011;53063;39.614;8.814;2024-01-15T08:43:48;18.20;;;6.88;;
66270;SDS011;53063;39.614;8.814;2024-01-15T08:46:14;11.98;;;4.35;;
66270;SDS011;53063;39.614;8.814;2024-01-15T08:48:40;11.77;;;5.13;;
66270;SDS011;53063;39.614;8.814;2024-01-15T08:51:06;13.43;;;4.63;;
66270;SDS011;53063;39.614;8.814;2024-01-15T08:53:33;12.95;;;3.42;;
66270;SDS011;53063;39.614;8.814;2024-01-15T08:55:59;8.52;;;2.30;;
66270;SDS011;53063;39.614;8.814;2024-01-15T08:58:25;8.48;;;3.35;;
66270;SDS011;53063;39.614;8.814;2024-01-15T09:00:51;13.23;;;2.90;;
66270;SDS011;53063;39.614;8.814;2024-01-15T09:03:17;10.80;;;3.58;;
66270;SDS011;53063;39.614;8.814;2024-01-15T09:05:43;12.57;;;2.85;;
66270;SDS011;53063;39.614;8.814;2024-01-15T09:08:09;16.58;;;5.88;;
66270;SDS011;53063;39.614;8.814;2024-01-15T09:10:35;11.98;;;4.03;;
66270;SDS011;53063;39.614;8.814;2024-01-15T09:13:01;18.08;;;4.88;;
66270;SDS011;53063;39.614;8.814;2024-01-15T09:15:29;9.55;;;4.03;;
66270;SDS011;53063;39.614;8.814;2024-01-15T09:17:54;8.63;;;2.63;;
66270;SDS011;53063;39.614;8.814;2024-01-15T09:20:22;9.23;;;3.20;;
66270;SDS011;53063;39.614;8.814;2024-01-15T09:22:48;9.27;;;3.33;;
66270;SDS011;53063;39.614;8.814;2024-01-15T09:25:14;10.75;;;3.55;;
66270;SDS011;53063;39.614;8.814;2024-01-15T09:27:40;4.35;;;2.38;;
66270;SDS011;53063;39.614;8.814;2024-01-15T09:30:07;10.48;;;3.45;;
66270;SDS011;53063;39.614;8.814;2024-01-15T09:32:33;9.15;;;2.72;;
66270;SDS011;53063;39.614;8.814;2024-01-15T09:34:59;8.15;;;2.72;;
66270;SDS011;53063;39.614;8.814;2024-01-15T09:37:25;9.70;;;4.63;;
66270;SDS011;53063;39.614;8.814;2024-01-15T09:39:51;6.85;;;1.90;;
66270;SDS011;53063;39.614;8.814;2024-01-15T09:42:17;8.93;;;4.30;;
66270;SDS011;53063;39.614;8.814;2024-01-15T09:44:44;5.03;;;2.33;;
66270;SDS011;53063;39.614;8.814;2024-01-15T09:47:10;4.50;;;2.35;;
66270;SDS011;53063;39.614;8.814;2024-01-15T09:49:37;6.05;;;2.65;;
66270;SDS011;53063;39.614;8.814;2024-01-15T09:52:05;4.60;;;2.15;;
66270;SDS011;53063;39.614;8.814;2024-01-15T09:54:33;4.63;;;2.60;;
66270;SDS011;53063;39.614;8.814;2024-01-15T09:57:03;6.00;;;2.03;;
66270;SDS011;53063;39.614;8.814;2024-01-15T09:59:29;4.82;;;2.10;;
66270;SDS011;53063;39.614;8.814;2024-01-15T10:01:56;5.75;;;1.80;;
66270;SDS011;53063;39.614;8.814;2024-01-15T10:04:24;6.40;;;1.90;;
66270;SDS011;53063;39.614;8.814;2024-01-15T10:06:51;13.40;;;2.40;;
66270;SDS011;53063;39.614;8.814;2024-01-15T10:09:17;5.03;;;2.50;;
66270;SDS011;53063;39.614;8.814;2024-01-15T10:11:43;5.30;;;2.10;;
66270;SDS011;53063;39.614;8.814;2024-01-15T10:14:10;6.55;;;3.42;;
66270;SDS011;53063;39.614;8.814;2024-01-15T10:16:43;4.43;;;1.90;;
66270;SDS011;53063;39.614;8.814;2024-01-15T10:19:09;7.18;;;1.50;;
66270;SDS011;53063;39.614;8.814;2024-01-15T10:21:35;8.18;;;1.63;;
66270;SDS011;53063;39.614;8.814;2024-01-15T10:24:02;5.57;;;1.85;;
66270;SDS011;53063;39.614;8.814;2024-01-15T10:26:29;5.18;;;1.30;;
66270;SDS011;53063;39.614;8.814;2024-01-15T10:28:56;5.60;;;3.00;;
66270;SDS011;53063;39.614;8.814;2024-01-15T10:31:23;5.30;;;1.67;;
66270;SDS011;53063;39.614;8.814;2024-01-15T10:33:50;2.42;;;1.20;;
66270;SDS011;53063;39.614;8.814;2024-01-15T10:36:17;3.63;;;1.40;;
66270;SDS011;53063;39.614;8.814;2024-01-15T10:38:43;7.43;;;2.03;;
66270;SDS011;53063;39.614;8.814;2024-01-15T10:41:10;7.25;;;1.55;;
66270;SDS011;53063;39.614;8.814;2024-01-15T10:43:36;4.63;;;1.50;;
66270;SDS011;53063;39.614;8.814;2024-01-15T10:46:02;6.97;;;2.35;;
66270;SDS011;53063;39.614;8.814;2024-01-15T10:48:28;3.67;;;1.52;;
66270;SDS011;53063;39.614;8.814;2024-01-15T10:50:56;3.13;;;2.40;;
66270;SDS011;53063;39.614;8.814;2024-01-15T10:53:23;5.28;;;1.77;;
66270;SDS011;53063;39.614;8.814;2024-01-15T10:55:53;10.73;;;3.30;;
66270;SDS011;53063;39.614;8.814;2024-01-15T10:58:20;8.32;;;2.70;;
66270;SDS011;53063;39.614;8.814;2024-01-15T11:00:48;4.22;;;1.50;;
66270;SDS011;53063;39.614;8.814;2024-01-15T11:03:14;4.20;;;1.98;;
66270;SDS011;53063;39.614;8.814;2024-01-15T11:05:42;4.75;;;1.85;;
66270;SDS011;53063;39.614;8.814;2024-01-15T11:08:09;4.03;;;1.70;;
66270;SDS011;53063;39.614;8.814;2024-01-15T11:10:40;5.68;;;1.65;;
66270;SDS011;53063;39.614;8.814;2024-01-15T11:13:08;2.92;;;1.70;;
66270;SDS011;53063;39.614;8.814;2024-01-15T11:15:55;5.65;;;1.80;;
66270;SDS011;53063;39.614;8.814;2024-01-15T11:18:30;7.10;;;1.60;;
66270;SDS011;53063;39.614;8.814;2024-01-15T11:23:57;5.60;;;2.85;;
66270;SDS011;53063;39.614;8.814;2024-01-15T11:26:37;4.07;;;1.80;;
66270;SDS011;53063;39.614;8.814;2024-01-15T11:34:53;3.15;;;1.00;;
66270;SDS011;53063;39.614;8.814;2024-01-15T11:38:15;5.95;;;1.30;;
66270;SDS011;53063;39.614;8.814;2024-01-15T11:40:23;4.55;;;1.25;;
66270;SDS011;53063;39.614;8.814;2024-01-15T11:43:04;8.07;;;1.30;;
66270;SDS011;53063;39.614;8.814;2024-01-15T11:45:32;4.10;;;1.30;;
66270;SDS011;53063;39.614;8.814;2024-01-15T11:48:12;5.25;;;0.98;;
66270;SDS011;53063;39.614;8.814;2024-01-15T11:50:39;5.97;;;1.90;;
66270;SDS011;53063;39.614;8.814;2024-01-15T11:53:13;2.80;;;1.08;;
66270;SDS011;53063;39.614;8.814;2024-01-15T11:58:27;9.25;;;1.50;;
66270;SDS011;53063;39.614;8.814;2024-01-15T12:00:53;6.32;;;1.60;;
66270;SDS011;53063;39.614;8.814;2024-01-15T12:03:20;4.35;;;1.30;;
66270;SDS011;53063;39.614;8.814;2024-01-15T12:05:50;10.48;;;1.52;;
66270;SDS011;53063;39.614;8.814;2024-01-15T12:08:23;9.43;;;1.77;;
66270;SDS011;53063;39.614;8.814;2024-01-15T12:10:49;11.77;;;2.20;;
66270;SDS011;53063;39.614;8.814;2024-01-15T12:13:15;8.18;;;1.77;;
66270;SDS011;53063;39.614;8.814;2024-01-15T12:15:43;4.22;;;1.67;;
66270;SDS011;53063;39.614;8.814;2024-01-15T12:18:11;5.28;;;2.03;;
66270;SDS011;53063;39.614;8.814;2024-01-15T12:20:41;7.60;;;2.30;;
66270;SDS011;53063;39.614;8.814;2024-01-15T12:23:09;8.23;;;1.42;;
66270;SDS011;53063;39.614;8.814;2024-01-15T12:25:37;8.75;;;2.17;;
66270;SDS011;53063;39.614;8.814;2024-01-15T12:28:03;4.15;;;1.30;;
66270;SDS011;53063;39.614;8.814;2024-01-15T12:30:29;6.38;;;1.23;;
66270;SDS011;53063;39.614;8.814;2024-01-15T12:33:02;8.40;;;1.88;;
66270;SDS011;53063;39.614;8.814;2024-01-15T12:35:29;11.18;;;2.20;;
66270;SDS011;53063;39.614;8.814;2024-01-15T12:37:55;7.30;;;1.42;;
66270;SDS011;53063;39.614;8.814;2024-01-15T12:40:22;10.88;;;1.52;;
66270;SDS011;53063;39.614;8.814;2024-01-15T12:42:49;11.02;;;1.40;;
66270;SDS011;53063;39.614;8.814;2024-01-15T12:45:15;7.30;;;1.23;;
66270;SDS011;53063;39.614;8.814;2024-01-15T12:47:41;8.77;;;1.70;;
66270;SDS011;53063;39.614;8.814;2024-01-15T12:50:11;6.47;;;1.40;;
66270;SDS011;53063;39.614;8.814;2024-01-15T12:52:39;9.48;;;1.65;;
66270;SDS011;53063;39.614;8.814;2024-01-15T12:55:06;6.18;;;0.90;;
66270;SDS011;53063;39.614;8.814;2024-01-15T12:57:34;9.18;;;1.92;;
66270;SDS011;53063;39.614;8.814;2024-01-15T13:00:01;7.22;;;1.55;;
66270;SDS011;53063;39.614;8.814;2024-01-15T13:02:31;5.30;;;1.65;;
66270;SDS011;53063;39.614;8.814;2024-01-15T13:04:58;5.97;;;1.65;;
66270;SDS011;53063;39.614;8.814;2024-01-15T13:07:25;7.65;;;1.73;;
66270;SDS011;53063;39.614;8.814;2024-01-15T13:09:51;8.02;;;1.60;;
66270;SDS011;53063;39.614;8.814;2024-01-15T13:12:19;5.80;;;1.25;;
66270;SDS011;53063;39.614;8.814;2024-01-15T13:14:45;7.30;;;1.83;;
66270;SDS011;53063;39.614;8.814;2024-01-15T13:17:12;13.10;;;1.85;;
66270;SDS011;53063;39.614;8.814;2024-01-15T13:19:39;10.90;;;1.90;;
66270;SDS011;53063;39.614;8.814;2024-01-15T13:22:05;8.70;;;2.10;;
66270;SDS011;53063;39.614;8.814;2024-01-15T13:24:35;6.68;;;1.63;;
66270;SDS011;53063;39.614;8.814;2024-01-15T13:27:02;8.75;;;1.45;;
66270;SDS011;53063;39.614;8.814;2024-01-15T13:29:29;10.57;;;2.38;;
66270;SDS011;53063;39.614;8.814;2024-01-15T13:31:56;11.60;;;2.80;;
66270;SDS011;53063;39.614;8.814;2024-01-15T13:34:22;8.23;;;1.35;;
66270;SDS011;53063;39.614;8.814;2024-01-15T13:36:48;10.82;;;2.15;;
66270;SDS011;53063;39.614;8.814;2024-01-15T13:39:15;11.13;;;1.98;;
66270;SDS011;53063;39.614;8.814;2024-01-15T13:41:45;9.50;;;1.45;;
66270;SDS011;53063;39.614;8.814;2024-01-15T13:44:14;9.95;;;1.55;;
66270;SDS011;53063;39.614;8.814;2024-01-15T13:46:40;9.10;;;1.88;;
66270;SDS011;53063;39.614;8.814;2024-01-15T13:49:07;9.82;;;1.58;;
66270;SDS011;53063;39.614;8.814;2024-01-15T13:51:34;6.63;;;1.30;;
66270;SDS011;53063;39.614;8.814;2024-01-15T13:54:01;10.40;;;1.30;;
66270;SDS011;53063;39.614;8.814;2024-01-15T13:56:29;10.60;;;2.20;;
66270;SDS011;53063;39.614;8.814;2024-01-15T13:58:57;8.95;;;1.30;;
66270;SDS011;53063;39.614;8.814;2024-01-15T14:01:24;11.20;;;1.83;;
66270;SDS011;53063;39.614;8.814;2024-01-15T14:03:50;7.45;;;1.60;;
66270;SDS011;53063;39.614;8.814;2024-01-15T14:06:16;6.28;;;1.20;;
66270;SDS011;53063;39.614;8.814;2024-01-15T14:08:42;9.90;;;1.63;;
66270;SDS011;53063;39.614;8.814;2024-01-15T14:11:08;8.85;;;1.40;;
66270;SDS011;53063;39.614;8.814;2024-01-15T14:13:35;5.10;;;1.08;;
66270;SDS011;53063;39.614;8.814;2024-01-15T14:16:01;6.30;;;1.30;;
66270;SDS011;53063;39.614;8.814;2024-01-15T14:18:27;7.20;;;0.98;;
66270;SDS011;53063;39.614;8.814;2024-01-15T14:20:53;4.38;;;0.85;;
66270;SDS011;53063;39.614;8.814;2024-01-15T14:23:20;8.70;;;1.15;;
66270;SDS011;53063;39.614;8.814;2024-01-15T14:25:46;4.38;;;1.17;;
66270;SDS011;53063;39.614;8.814;2024-01-15T14:28:12;6.22;;;1.40;;
66270;SDS011;53063;39.614;8.814;2024-01-15T14:30:38;2.83;;;1.48;;
66270;SDS011;53063;39.614;8.814;2024-01-15T14:33:04;4.50;;;1.08;;
66270;SDS011;53063;39.614;8.814;2024-01-15T14:35:30;5.82;;;1.20;;
66270;SDS011;53063;39.614;8.814;2024-01-15T14:37:55;7.70;;;2.05;;
66270;SDS011;53063;39.614;8.814;2024-01-15T14:40:24;6.18;;;1.50;;
66270;SDS011;53063;39.614;8.814;2024-01-15T14:42:51;6.38;;;1.40;;
66270;SDS011;53063;39.614;8.814;2024-01-15T14:45:17;5.68;;;1.10;;
66270;SDS011;53063;39.614;8.814;2024-01-15T14:47:43;6.10;;;1.33;;
66270;SDS011;53063;39.614;8.814;2024-01-15T14:50:09;3.85;;;1.27;;
66270;SDS011;53063;39.614;8.814;2024-01-15T14:52:36;5.25;;;1.00;;
66270;SDS011;53063;39.614;8.814;2024-01-15T14:55:02;8.55;;;1.77;;